sensor_id;sensor_type;location;lat;lon;timestamp;P1;durP1;ratioP1;P2;durP2;ratioP2
59702;SDS011;45570;48.782;8.332;2023-03-14T00:02:17;5.82;;;1.27;;
59702;SDS011;45570;48.782;8.332;2023-03-14T00:04:46;1.08;;;0.98;;
59702;SDS011;45570;48.782;8.332;2023-03-14T00:07:14;2.85;;;1.38;;
59702;SDS011;45570;48.782;8.332;2023-03-14T00:09:43;8.52;;;2.20;;
59702;SDS011;45570;48.782;8.332;2023-03-14T00:12:11;4.03;;;1.20;;
59702;SDS011;45570;48.782;8.332;2023-03-14T00:14:42;4.85;;;1.40;;
59702;SDS011;45570;48.782;8.332;2023-03-14T00:17:11;5.80;;;1.50;;
59702;SDS011;45570;48.782;8.332;2023-03-14T00:19:40;1.58;;;1.25;;
59702;SDS011;45570;48.782;8.332;2023-03-14T00:22:08;3.38;;;1.92;;
59702;SDS011;45570;48.782;8.332;2023-03-14T00:24:37;4.32;;;1.08;;
59702;SDS011;45570;48.782;8.332;2023-03-14T00:27:06;3.65;;;1.10;;
59702;SDS011;45570;48.782;8.332;2023-03-14T07:41:05;0.93;;;0.43;;
59702;SDS011;45570;48.782;8.332;2023-03-14T07:43:39;0.60;;;0.47;;
59702;SDS011;45570;48.782;8.332;2023-03-14T07:46:08;2.50;;;0.45;;
59702;SDS011;45570;48.782;8.332;2023-03-14T07:48:37;1.63;;;0.63;;
59702;SDS011;45570;48.782;8.332;2023-03-14T07:51:06;0.57;;;0.55;;
59702;SDS011;45570;48.782;8.332;2023-03-14T07:53:34;1.77;;;0.40;;
59702;SDS011;45570;48.782;8.332;2023-03-14T08:08:33;0.55;;;0.40;;
59702;SDS011;45570;48.782;8.332;2023-03-14T08:11:02;1.27;;;0.55;;
59702;SDS011;45570;48.782;8.332;2023-03-14T08:19:42;1.00;;;0.43;;
59702;SDS011;45570;48.782;8.332;2023-03-14T08:22:10;1.27;;;0.43;;
59702;SDS011;45570;48.782;8.332;2023-03-14T08:24:39;0.50;;;0.40;;
59702;SDS011;45570;48.782;8.332;2023-03-14T08:30:37;2.45;;;0.60;;
59702;SDS011;45570;48.782;8.332;2023-03-14T08:33:06;2.35;;;0.60;;
59702;SDS011;45570;48.782;8.332;2023-03-14T08:35:35;1.92;;;0.60;;
59702;SDS011;45570;48.782;8.332;2023-03-14T08:38:05;3.60;;;0.55;;
59702;SDS011;45570;48.782;8.332;2023-03-14T08:40:34;5.57;;;0.80;;
59702;SDS011;45570;48.782;8.332;2023-03-14T08:43:02;1.77;;;0.70;;
59702;SDS011;45570;48.782;8.332;2023-03-14T08:45:31;1.63;;;0.60;;
59702;SDS011;45570;48.782;8.332;2023-03-14T08:48:01;1.33;;;0.60;;
59702;SDS011;45570;48.782;8.332;2023-03-14T08:50:29;0.85;;;0.55;;
59702;SDS011;45570;48.782;8.332;2023-03-14T08:52:58;1.65;;;0.40;;
59702;SDS011;45570;48.782;8.332;2023-03-14T08:55:27;4.50;;;1.33;;
59702;SDS011;45570;48.782;8.332;2023-03-14T08:57:56;2.42;;;0.50;;
59702;SDS011;45570;48.782;8.332;2023-03-14T09:00:24;2.88;;;0.60;;
59702;SDS011;45570;48.782;8.332;2023-03-14T09:02:53;0.40;;;0.40;;
59702;SDS011;45570;48.782;8.332;2023-03-14T09:05:23;1.02;;;0.90;;
59702;SDS011;45570;48.782;8.332;2023-03-14T09:07:52;4.47;;;0.75;;
59702;SDS011;45570;48.782;8.332;2023-03-14T09:10:20;0.80;;;0.50;;
59702;SDS011;45570;48.782;8.332;2023-03-14T09:12:49;2.40;;;0.60;;
59702;SDS011;45570;48.782;8.332;2023-03-14T09:15:17;0.40;;;0.40;;
59702;SDS011;45570;48.782;8.332;2023-03-14T09:17:46;1.30;;;0.47;;
59702;SDS011;45570;48.782;8.332;2023-03-14T09:20:15;0.65;;;0.40;;
59702;SDS011;45570;48.782;8.332;2023-03-14T09:22:45;0.60;;;0.60;;
59702;SDS011;45570;48.782;8.332;2023-03-14T09:25:14;0.50;;;0.30;;
59702;SDS011;45570;48.782;8.332;2023-03-14T09:27:43;0.55;;;0.40;;
59702;SDS011;45570;48.782;8.332;2023-03-14T09:30:11;0.63;;;0.30;;
59702;SDS011;45570;48.782;8.332;2023-03-14T09:32:40;1.45;;;0.38;;
59702;SDS011;45570;48.782;8.332;2023-03-14T09:35:09;0.40;;;0.40;;
59702;SDS011;45570;48.782;8.332;2023-03-14T09:37:38;0.40;;;0.40;;
59702;SDS011;45570;48.782;8.332;2023-03-14T09:40:11;0.38;;;0.38;;
59702;SDS011;45570;48.782;8.332;2023-03-14T09:42:41;1.27;;;0.40;;
59702;SDS011;45570;48.782;8.332;2023-03-14T09:45:11;0.30;;;0.30;;
59702;SDS011;45570;48.782;8.332;2023-03-14T09:47:45;0.38;;;0.38;;
59702;SDS011;45570;48.782;8.332;2023-03-14T09:50:25;0.47;;;0.30;;
59702;SDS011;45570;48.782;8.332;2023-03-14T09:52:59;0.63;;;0.40;;
59702;SDS011;45570;48.782;8.332;2023-03-14T09:55:32;0.20;;;0.20;;
59702;SDS011;45570;48.782;8.332;2023-03-14T09:58:04;2.33;;;0.45;;
59702;SDS011;45570;48.782;8.332;2023-03-14T10:00:38;0.82;;;0.45;;
59702;SDS011;45570;48.782;8.332;2023-03-14T10:03:14;0.40;;;0.40;;
59702;SDS011;45570;48.782;8.332;2023-03-14T10:05:50;0.40;;;0.32;;
59702;SDS011;45570;48.782;8.332;2023-03-14T10:08:19;0.80;;;0.40;;
59702;SDS011;45570;48.782;8.332;2023-03-14T10:10:49;0.77;;;0.77;;
59702;SDS011;45570;48.782;8.332;2023-03-14T10:13:18;0.73;;;0.50;;
59702;SDS011;45570;48.782;8.332;2023-03-14T10:15:51;2.15;;;0.40;;
59702;SDS011;45570;48.782;8.332;2023-03-14T10:18:21;0.52;;;0.47;;
59702;SDS011;45570;48.782;8.332;2023-03-14T10:21:01;0.40;;;0.40;;
59702;SDS011;45570;48.782;8.332;2023-03-14T10:23:33;1.13;;;0.50;;
59702;SDS011;45570;48.782;8.332;2023-03-14T10:26:11;0.45;;;0.45;;
59702;SDS011;45570;48.782;8.332;2023-03-14T10:28:43;0.95;;;0.40;;
59702;SDS011;45570;48.782;8.332;2023-03-14T10:31:13;1.98;;;0.52;;
59702;SDS011;45570;48.782;8.332;2023-03-14T10:33:43;1.08;;;0.40;;
59702;SDS011;45570;48.782;8.332;2023-03-14T10:36:27;0.70;;;0.50;;
59702;SDS011;45570;48.782;8.332;2023-03-14T10:38:57;0.40;;;0.40;;
59702;SDS011;45570;48.782;8.332;2023-03-14T10:44:02;1.55;;;0.80;;
59702;SDS011;45570;48.782;8.332;2023-03-14T10:46:40;0.50;;;0.50;;
59702;SDS011;45570;48.782;8.332;2023-03-14T10:49:26;2.47;;;0.47;;
59702;SDS011;45570;48.782;8.332;2023-03-14T10:51:57;0.60;;;0.50;;
59702;SDS011;45570;48.782;8.332;2023-03-14T10:54:30;0.60;;;0.40;;
59702;SDS011;45570;48.782;8.332;2023-03-14T10:57:01;0.40;;;0.40;;
59702;SDS011;45570;48.782;8.332;2023-03-14T10:59:33;0.57;;;0.50;;
59702;SDS011;45570;48.782;8.332;2023-03-14T11:02:06;0.30;;;0.30;;
59702;SDS011;45570;48.782;8.332;2023-03-14T11:04:53;0.30;;;0.30;;
59702;SDS011;45570;48.782;8.332;2023-03-14T11:07:32;0.60;;;0.38;;
59702;SDS011;45570;48.782;8.332;2023-03-14T11:10:08;0.73;;;0.40;;
59702;SDS011;45570;48.782;8.332;2023-03-14T11:12:49;0.85;;;0.40;;
59702;SDS011;45570;48.782;8.332;2023-03-14T11:15:24;1.27;;;0.52;;
59702;SDS011;45570;48.782;8.332;2023-03-14T11:18:03;1.75;;;0.30;;
59702;SDS011;45570;48.782;8.332;2023-03-14T11:20:50;0.70;;;0.50;;
59702;SDS011;45570;48.782;8.332;2023-03-14T11:23:23;1.60;;;0.40;;
59702;SDS011;45570;48.782;8.332;2023-03-14T11:26:01;0.52;;;0.52;;
59702;SDS011;45570;48.782;8.332;2023-03-14T11:28:41;0.45;;;0.45;;
59702;SDS011;45570;48.782;8.332;2023-03-14T11:31:16;1.10;;;0.70;;
59702;SDS011;45570;48.782;8.332;2023-03-14T11:33:50;0.82;;;0.82;;
59702;SDS011;45570;48.782;8.332;2023-03-14T11:36:29;3.70;;;0.93;;
59702;SDS011;45570;48.782;8.332;2023-03-14T11:39:02;1.00;;;1.00;;
59702;SDS011;45570;48.782;8.332;2023-03-14T11:41:40;1.00;;;1.00;;
59702;SDS011;45570;48.782;8.332;2023-03-14T11:44:14;2.03;;;0.88;;
59702;SDS011;45570;48.782;8.332;2023-03-14T11:46:48;0.93;;;0.93;;
59702;SDS011;45570;48.782;8.332;2023-03-14T11:49:26;1.33;;;1.20;;
59702;SDS011;45570;48.782;8.332;2023-03-14T11:52:03;2.53;;;1.20;;
59702;SDS011;45570;48.782;8.332;2023-03-14T11:54:39;2.17;;;1.10;;
59702;SDS011;45570;48.782;8.332;2023-03-14T11:57:12;2.58;;;1.70;;
59702;SDS011;45570;48.782;8.332;2023-03-14T11:59:47;1.55;;;0.93;;
59702;SDS011;45570;48.782;8.332;2023-03-14T12:02:21;2.10;;;1.27;;
59702;SDS011;45570;48.782;8.332;2023-03-14T12:04:59;3.10;;;1.17;;
59702;SDS011;45570;48.782;8.332;2023-03-14T12:07:49;3.95;;;1.30;;
59702;SDS011;45570;48.782;8.332;2023-03-14T12:10:35;1.35;;;1.02;;
59702;SDS011;45570;48.782;8.332;2023-03-14T12:13:06;2.40;;;1.13;;
59702;SDS011;45570;48.782;8.332;2023-03-14T12:15:40;11.65;;;1.67;;
59702;SDS011;45570;48.782;8.332;2023-03-14T12:18:17;1.15;;;0.80;;
59702;SDS011;45570;48.782;8.332;2023-03-14T12:20:53;3.00;;;0.80;;
59702;SDS011;45570;48.782;8.332;2023-03-14T12:26:06;1.60;;;0.90;;
59702;SDS011;45570;48.782;8.332;2023-03-14T12:28:42;1.98;;;0.82;;
59702;SDS011;45570;48.782;8.332;2023-03-14T12:37:05;4.13;;;1.10;;
59702;SDS011;45570;48.782;8.332;2023-03-14T12:39:43;2.97;;;0.90;;
59702;SDS011;45570;48.782;8.332;2023-03-14T12:42:34;2.10;;;0.90;;
59702;SDS011;45570;48.782;8.332;2023-03-14T12:45:15;3.03;;;1.05;;
59702;SDS011;45570;48.782;8.332;2023-03-14T12:47:57;2.45;;;1.00;;
59702;SDS011;45570;48.782;8.332;2023-03-14T12:50:40;1.13;;;0.63;;
59702;SDS011;45570;48.782;8.332;2023-03-14T12:56:23;4.95;;;1.00;;
59702;SDS011;45570;48.782;8.332;2023-03-14T13:01:53;1.58;;;0.80;;
59702;SDS011;45570;48.782;8.332;2023-03-14T13:04:29;3.03;;;1.00;;
59702;SDS011;45570;48.782;8.332;2023-03-14T13:07:11;2.65;;;0.80;;
59702;SDS011;45570;48.782;8.332;2023-03-14T13:12:37;1.92;;;0.88;;
59702;SDS011;45570;48.782;8.332;2023-03-14T13:15:15;1.23;;;0.68;;
59702;SDS011;45570;48.782;8.332;2023-03-14T13:17:51;4.03;;;1.25;;
59702;SDS011;45570;48.782;8.332;2023-03-14T13:20:27;2.38;;;1.00;;
59702;SDS011;45570;48.782;8.332;2023-03-14T13:22:58;1.58;;;0.75;;
59702;SDS011;45570;48.782;8.332;2023-03-14T13:25:29;2.28;;;0.80;;
59702;SDS011;45570;48.782;8.332;2023-03-14T13:28:00;1.67;;;0.88;;
59702;SDS011;45570;48.782;8.332;2023-03-14T13:30:35;2.42;;;0.85;;
59702;SDS011;45570;48.782;8.332;2023-03-14T13:33:11;2.25;;;0.77;;
59702;SDS011;45570;48.782;8.332;2023-03-14T13:35:43;1.00;;;0.70;;
59702;SDS011;45570;48.782;8.332;2023-03-14T13:38:15;3.22;;;1.15;;
59702;SDS011;45570;48.782;8.332;2023-03-14T13:40:46;1.20;;;0.60;;
59702;SDS011;45570;48.782;8.332;2023-03-14T13:43:20;3.00;;;0.80;;
59702;SDS011;45570;48.782;8.332;2023-03-14T13:45:53;5.25;;;0.82;;
59702;SDS011;45570;48.782;8.332;2023-03-14T13:48:26;1.55;;;0.80;;
59702;SDS011;45570;48.782;8.332;2023-03-14T13:50:58;3.47;;;0.70;;
59702;SDS011;45570;48.782;8.332;2023-03-14T13:53:29;2.38;;;0.88;;
59702;SDS011;45570;48.782;8.332;2023-03-14T13:56:01;2.90;;;0.63;;
59702;SDS011;45570;48.782;8.332;2023-03-14T13:58:31;3.35;;;1.00;;
59702;SDS011;45570;48.782;8.332;2023-03-14T14:01:01;5.65;;;1.20;;
59702;SDS011;45570;48.782;8.332;2023-03-14T14:03:33;5.10;;;1.20;;
59702;SDS011;45570;48.782;8.332;2023-03-14T14:06:07;6.82;;;1.00;;
59702;SDS011;45570;48.782;8.332;2023-03-14T14:08:44;2.53;;;0.95;;
59702;SDS011;45570;48.782;8.332;2023-03-14T14:11:18;4.50;;;0.95;;
59702;SDS011;45570;48.782;8.332;2023-03-14T14:14:09;8.40;;;1.00;;
59702;SDS011;45570;48.782;8.332;2023-03-14T14:16:43;2.78;;;1.27;;
59702;SDS011;45570;48.782;8.332;2023-03-14T14:19:14;4.75;;;1.20;;
59702;SDS011;45570;48.782;8.332;2023-03-14T14:21:48;2.63;;;0.90;;
59702;SDS011;45570;48.782;8.332;2023-03-14T14:24:17;3.30;;;0.90;;
59702;SDS011;45570;48.782;8.332;2023-03-14T14:26:59;3.47;;;1.00;;
59702;SDS011;45570;48.782;8.332;2023-03-14T14:29:29;4.38;;;1.30;;
59702;SDS011;45570;48.782;8.332;2023-03-14T14:32:00;4.65;;;1.05;;
59702;SDS011;45570;48.782;8.332;2023-03-14T14:34:29;5.88;;;1.20;;
59702;SDS011;45570;48.782;8.332;2023-03-14T14:37:17;2.63;;;0.90;;
59702;SDS011;45570;48.782;8.332;2023-03-14T14:39:47;3.95;;;1.10;;
59702;SDS011;45570;48.782;8.332;2023-03-14T14:42:19;4.40;;;1.02;;
59702;SDS011;45570;48.782;8.332;2023-03-14T14:44:50;3.70;;;1.00;;
59702;SDS011;45570;48.782;8.332;2023-03-14T14:47:20;5.65;;;1.10;;
59702;SDS011;45570;48.782;8.332;2023-03-14T14:49:51;9.02;;;1.27;;
59702;SDS011;45570;48.782;8.332;2023-03-14T14:52:30;3.22;;;0.80;;
59702;SDS011;45570;48.782;8.332;2023-03-14T14:55:02;3.88;;;1.15;;
59702;SDS011;45570;48.782;8.332;2023-03-14T14:57:39;4.10;;;1.35;;
59702;SDS011;45570;48.782;8.332;2023-03-14T15:00:16;4.97;;;1.27;;
59702;SDS011;45570;48.782;8.332;2023-03-14T15:02:47;1.67;;;0.80;;
59702;SDS011;45570;48.782;8.332;2023-03-14T15:05:21;7.10;;;1.30;;
59702;SDS011;45570;48.782;8.332;2023-03-14T15:07:53;2.83;;;1.25;;
59702;SDS011;45570;48.782;8.332;2023-03-14T15:10:22;2.80;;;1.00;;
59702;SDS011;45570;48.782;8.332;2023-03-14T15:12:52;6.25;;;1.10;;
59702;SDS011;45570;48.782;8.332;2023-03-14T15:15:21;2.08;;;0.82;;
59702;SDS011;45570;48.782;8.332;2023-03-14T15:17:49;4.85;;;1.27;;
59702;SDS011;45570;48.782;8.332;2023-03-14T15:20:18;3.78;;;1.25;;
59702;SDS011;45570;48.782;8.332;2023-03-14T15:22:50;4.60;;;0.98;;
59702;SDS011;45570;48.782;8.332;2023-03-14T15:25:20;3.72;;;1.10;;
59702;SDS011;45570;48.782;8.332;2023-03-14T15:28:13;2.53;;;1.10;;
59702;SDS011;45570;48.782;8.332;2023-03-14T15:30:44;3.30;;;1.10;;
59702;SDS011;45570;48.782;8.332;2023-03-14T15:33:12;6.40;;;1.90;;
59702;SDS011;45570;48.782;8.332;2023-03-14T15:35:41;5.65;;;1.20;;
59702;SDS011;45570;48.782;8.332;2023-03-14T15:38:10;3.88;;;1.20;;
59702;SDS011;45570;48.782;8.332;2023-03-14T15:40:41;3.75;;;0.98;;
59702;SDS011;45570;48.782;8.332;2023-03-14T15:43:10;2.28;;;1.00;;
59702;SDS011;45570;48.782;8.332;2023-03-14T15:45:39;4.43;;;1.10;;
59702;SDS011;45570;48.782;8.332;2023-03-14T15:48:09;3.47;;;1.38;;
59702;SDS011;45570;48.782;8.332;2023-03-14T15:50:42;5.05;;;1.30;;
59702;SDS011;45570;48.782;8.332;2023-03-14T15:53:11;4.88;;;1.10;;
59702;SDS011;45570;48.782;8.332;2023-03-14T15:55:39;3.33;;;1.35;;
59702;SDS011;45570;48.782;8.332;2023-03-14T15:58:13;2.15;;;1.00;;
59702;SDS011;45570;48.782;8.332;2023-03-14T16:00:47;7.35;;;1.30;;
59702;SDS011;45570;48.782;8.332;2023-03-14T16:03:16;2.10;;;0.90;;
59702;SDS011;45570;48.782;8.332;2023-03-14T16:05:44;4.25;;;1.10;;
59702;SDS011;45570;48.782;8.332;2023-03-14T16:08:13;2.38;;;1.20;;
59702;SDS011;45570;48.782;8.332;2023-03-14T16:10:44;4.72;;;1.15;;
59702;SDS011;45570;48.782;8.332;2023-03-14T16:13:13;3.67;;;1.30;;
59702;SDS011;45570;48.782;8.332;2023-03-14T16:15:42;3.15;;;0.90;;
59702;SDS011;45570;48.782;8.332;2023-03-14T16:18:21;3.20;;;1.10;;
59702;SDS011;45570;48.782;8.332;2023-03-14T16:20:53;8.18;;;1.73;;
59702;SDS011;45570;48.782;8.332;2023-03-14T16:23:23;3.25;;;1.15;;
59702;SDS011;45570;48.782;8.332;2023-03-14T16:25:53;3.88;;;1.17;;
59702;SDS011;45570;48.782;8.332;2023-03-14T16:28:22;6.38;;;1.25;;
59702;SDS011;45570;48.782;8.332;2023-03-14T16:30:52;4.88;;;1.20;;
59702;SDS011;45570;48.782;8.332;2023-03-14T16:33:26;5.63;;;1.58;;
59702;SDS011;45570;48.782;8.332;2023-03-14T16:35:55;4.80;;;1.20;;
59702;SDS011;45570;48.782;8.332;2023-03-14T16:38:27;2.97;;;1.17;;
59702;SDS011;45570;48.782;8.332;2023-03-14T16:41:01;3.83;;;1.33;;
59702;SDS011;45570;48.782;8.332;2023-03-14T16:43:31;9.23;;;2.13;;
59702;SDS011;45570;48.782;8.332;2023-03-14T16:46:03;4.53;;;1.30;;
59702;SDS011;45570;48.782;8.332;2023-03-14T16:48:33;3.55;;;1.30;;
59702;SDS011;45570;48.782;8.332;2023-03-14T16:51:01;6.80;;;2.67;;
59702;SDS011;45570;48.782;8.332;2023-03-14T16:53:30;4.78;;;1.95;;
59702;SDS011;45570;48.782;8.332;2023-03-14T16:56:00;4.50;;;1.33;;
59702;SDS011;45570;48.782;8.332;2023-03-14T16:58:29;3.20;;;1.20;;
59702;SDS011;45570;48.782;8.332;2023-03-14T17:00:58;7.07;;;1.23;;
59702;SDS011;45570;48.782;8.332;2023-03-14T17:03:36;6.53;;;1.27;;
59702;SDS011;45570;48.782;8.332;2023-03-14T17:06:06;4.88;;;1.15;;
59702;SDS011;45570;48.782;8.332;2023-03-14T17:08:35;4.93;;;1.25;;
59702;SDS011;45570;48.782;8.332;2023-03-14T17:11:05;6.75;;;1.15;;
59702;SDS011;45570;48.782;8.332;2023-03-14T17:13:35;8.48;;;1.33;;
59702;SDS011;45570;48.782;8.332;2023-03-14T17:16:04;8.20;;;1.38;;
59702;SDS011;45570;48.782;8.332;2023-03-14T17:18:33;3.22;;;1.40;;
59702;SDS011;45570;48.782;8.332;2023-03-14T17:21:02;4.80;;;1.95;;
59702;SDS011;45570;48.782;8.332;2023-03-14T17:23:32;3.83;;;1.60;;
59702;SDS011;45570;48.782;8.332;2023-03-14T17:26:02;8.13;;;2.00;;
59702;SDS011;45570;48.782;8.332;2023-03-14T17:28:32;2.80;;;1.20;;
59702;SDS011;45570;48.782;8.332;2023-03-14T17:31:05;3.40;;;1.30;;
59702;SDS011;45570;48.782;8.332;2023-03-14T17:33:34;5.47;;;1.00;;
59702;SDS011;45570;48.782;8.332;2023-03-14T17:36:03;2.30;;;1.67;;
59702;SDS011;45570;48.782;8.332;2023-03-14T17:38:34;7.00;;;1.33;;
59702;SDS011;45570;48.782;8.332;2023-03-14T17:41:02;3.38;;;0.80;;
59702;SDS011;45570;48.782;8.332;2023-03-14T17:43:32;3.03;;;0.93;;
59702;SDS011;45570;48.782;8.332;2023-03-14T17:46:02;4.05;;;1.02;;
59702;SDS011;45570;48.782;8.332;2023-03-14T17:48:34;2.40;;;0.90;;
59702;SDS011;45570;48.782;8.332;2023-03-14T17:51:03;4.45;;;0.90;;
59702;SDS011;45570;48.782;8.332;2023-03-14T17:53:31;2.63;;;1.10;;
59702;SDS011;45570;48.782;8.332;2023-03-14T17:56:00;5.20;;;1.15;;
59702;SDS011;45570;48.782;8.332;2023-03-14T17:58:29;5.03;;;1.27;;
59702;SDS011;45570;48.782;8.332;2023-03-14T18:01:08;6.90;;;1.30;;
59702;SDS011;45570;48.782;8.332;2023-03-14T18:03:38;2.60;;;1.08;;
59702;SDS011;45570;48.782;8.332;2023-03-14T18:06:07;2.55;;;0.80;;
59702;SDS011;45570;48.782;8.332;2023-03-14T18:08:38;6.22;;;1.25;;
59702;SDS011;45570;48.782;8.332;2023-03-14T18:11:09;3.92;;;1.00;;
59702;SDS011;45570;48.782;8.332;2023-03-14T18:13:38;6.95;;;1.52;;
59702;SDS011;45570;48.782;8.332;2023-03-14T18:16:09;4.40;;;2.08;;
59702;SDS011;45570;48.782;8.332;2023-03-14T18:18:40;2.97;;;1.15;;
59702;SDS011;45570;48.782;8.332;2023-03-14T18:21:13;5.22;;;1.40;;
59702;SDS011;45570;48.782;8.332;2023-03-14T18:23:42;5.38;;;1.40;;
59702;SDS011;45570;48.782;8.332;2023-03-14T18:26:11;2.85;;;1.35;;
59702;SDS011;45570;48.782;8.332;2023-03-14T18:28:40;3.28;;;1.20;;
59702;SDS011;45570;48.782;8.332;2023-03-14T18:31:10;11.82;;;2.90;;
59702;SDS011;45570;48.782;8.332;2023-03-14T18:33:40;5.00;;;1.58;;
59702;SDS011;45570;48.782;8.332;2023-03-14T18:36:11;4.10;;;1.52;;
59702;SDS011;45570;48.782;8.332;2023-03-14T18:38:40;5.60;;;1.20;;
59702;SDS011;45570;48.782;8.332;2023-03-14T18:41:09;3.63;;;1.38;;
59702;SDS011;45570;48.782;8.332;2023-03-14T18:43:40;3.92;;;1.20;;
59702;SDS011;45570;48.782;8.332;2023-03-14T18:46:10;6.53;;;1.65;;
59702;SDS011;45570;48.782;8.332;2023-03-14T18:48:40;7.15;;;1.55;;
59702;SDS011;45570;48.782;8.332;2023-03-14T18:51:08;5.53;;;1.60;;
59702;SDS011;45570;48.782;8.332;2023-03-14T18:53:38;2.90;;;1.13;;
59702;SDS011;45570;48.782;8.332;2023-03-14T18:56:08;3.67;;;1.23;;
59702;SDS011;45570;48.782;8.332;2023-03-14T18:58:39;9.70;;;1.45;;
59702;SDS011;45570;48.782;8.332;2023-03-14T19:01:08;8.85;;;3.50;;
59702;SDS011;45570;48.782;8.332;2023-03-14T19:03:38;7.95;;;1.42;;
59702;SDS011;45570;48.782;8.332;2023-03-14T19:06:08;6.82;;;1.55;;
59702;SDS011;45570;48.782;8.332;2023-03-14T19:08:38;4.43;;;1.52;;
59702;SDS011;45570;48.782;8.332;2023-03-14T19:11:08;4.97;;;1.40;;
59702;SDS011;45570;48.782;8.332;2023-03-14T19:13:38;3.28;;;1.13;;
59702;SDS011;45570;48.782;8.332;2023-03-14T19:16:09;8.35;;;1.48;;
59702;SDS011;45570;48.782;8.332;2023-03-14T19:18:41;3.00;;;1.10;;
59702;SDS011;45570;48.782;8.332;2023-03-14T19:21:10;4.53;;;1.33;;
59702;SDS011;45570;48.782;8.332;2023-03-14T19:23:41;5.03;;;1.50;;
59702;SDS011;45570;48.782;8.332;2023-03-14T19:26:14;4.97;;;1.40;;
59702;SDS011;45570;48.782;8.332;2023-03-14T19:28:44;3.35;;;1.92;;
59702;SDS011;45570;48.782;8.332;2023-03-14T19:31:12;5.22;;;1.58;;
59702;SDS011;45570;48.782;8.332;2023-03-14T19:33:42;5.25;;;1.63;;
59702;SDS011;45570;48.782;8.332;2023-03-14T19:36:17;5.47;;;1.73;;
59702;SDS011;45570;48.782;8.332;2023-03-14T19:38:48;4.38;;;1.80;;
59702;SDS011;45570;48.782;8.332;2023-03-14T19:41:17;5.55;;;1.67;;
59702;SDS011;45570;48.782;8.332;2023-03-14T19:43:46;6.65;;;1.77;;
59702;SDS011;45570;48.782;8.332;2023-03-14T19:46:14;5.72;;;2.15;;
59702;SDS011;45570;48.782;8.332;2023-03-14T19:48:44;3.13;;;1.67;;
59702;SDS011;45570;48.782;8.332;2023-03-14T19:51:14;6.93;;;1.75;;
59702;SDS011;45570;48.782;8.332;2023-03-14T19:53:43;5.30;;;1.60;;
59702;SDS011;45570;48.782;8.332;2023-03-14T19:56:12;4.18;;;1.65;;
59702;SDS011;45570;48.782;8.332;2023-03-14T19:58:40;6.82;;;2.47;;
59702;SDS011;45570;48.782;8.332;2023-03-14T20:01:09;6.28;;;1.67;;
59702;SDS011;45570;48.782;8.332;2023-03-14T20:03:38;3.97;;;1.50;;
59702;SDS011;45570;48.782;8.332;2023-03-14T20:06:09;3.78;;;2.00;;
59702;SDS011;45570;48.782;8.332;2023-03-14T20:08:39;4.72;;;1.60;;
59702;SDS011;45570;48.782;8.332;2023-03-14T20:11:09;4.78;;;1.60;;
59702;SDS011;45570;48.782;8.332;2023-03-14T20:13:38;5.50;;;2.20;;
59702;SDS011;45570;48.782;8.332;2023-03-14T20:16:06;6.30;;;1.95;;
59702;SDS011;45570;48.782;8.332;2023-03-14T20:18:37;4.55;;;1.60;;
59702;SDS011;45570;48.782;8.332;2023-03-14T20:21:08;11.68;;;1.70;;
59702;SDS011;45570;48.782;8.332;2023-03-14T20:23:38;6.20;;;1.77;;
59702;SDS011;45570;48.782;8.332;2023-03-14T20:26:09;4.22;;;1.70;;
59702;SDS011;45570;48.782;8.332;2023-03-14T20:28:37;4.60;;;1.52;;
59702;SDS011;45570;48.782;8.332;2023-03-14T20:31:08;7.68;;;1.85;;
59702;SDS011;45570;48.782;8.332;2023-03-14T20:33:37;7.75;;;2.20;;
59702;SDS011;45570;48.782;8.332;2023-03-14T20:36:05;7.93;;;1.90;;
59702;SDS011;45570;48.782;8.332;2023-03-14T20:38:36;6.20;;;2.10;;
59702;SDS011;45570;48.782;8.332;2023-03-14T20:41:05;7.13;;;1.60;;
59702;SDS011;45570;48.782;8.332;2023-03-14T20:43:36;4.68;;;1.60;;
59702;SDS011;45570;48.782;8.332;2023-03-14T20:46:05;5.63;;;1.88;;
59702;SDS011;45570;48.782;8.332;2023-03-14T20:48:34;3.53;;;1.73;;
59702;SDS011;45570;48.782;8.332;2023-03-14T20:51:04;4.60;;;1.80;;
59702;SDS011;45570;48.782;8.332;2023-03-14T20:53:35;2.92;;;1.80;;
59702;SDS011;45570;48.782;8.332;2023-03-14T20:56:03;6.78;;;1.98;;
59702;SDS011;45570;48.782;8.332;2023-03-14T20:58:32;5.38;;;2.30;;
59702;SDS011;45570;48.782;8.332;2023-03-14T21:01:01;7.82;;;2.25;;
59702;SDS011;45570;48.782;8.332;2023-03-14T21:03:30;2.17;;;1.50;;
59702;SDS011;45570;48.782;8.332;2023-03-14T21:05:58;4.35;;;1.92;;
59702;SDS011;45570;48.782;8.332;2023-03-14T21:08:27;3.88;;;1.88;;
59702;SDS011;45570;48.782;8.332;2023-03-14T21:10:57;6.80;;;2.00;;
59702;SDS011;45570;48.782;8.332;2023-03-14T21:13:26;6.03;;;2.65;;
59702;SDS011;45570;48.782;8.332;2023-03-14T21:15:58;4.45;;;1.60;;
59702;SDS011;45570;48.782;8.332;2023-03-14T21:18:27;4.85;;;1.80;;
59702;SDS011;45570;48.782;8.332;2023-03-14T21:20:57;4.22;;;2.03;;
59702;SDS011;45570;48.782;8.332;2023-03-14T21:23:26;4.72;;;1.92;;
59702;SDS011;45570;48.782;8.332;2023-03-14T21:25:55;3.53;;;2.00;;
59702;SDS011;45570;48.782;8.332;2023-03-14T21:28:25;6.38;;;2.13;;
59702;SDS011;45570;48.782;8.332;2023-03-14T21:30:54;2.20;;;1.52;;
59702;SDS011;45570;48.782;8.332;2023-03-14T21:33:22;6.45;;;1.98;;
59702;SDS011;45570;48.782;8.332;2023-03-14T21:35:51;3.72;;;1.70;;
59702;SDS011;45570;48.782;8.332;2023-03-14T21:38:20;5.50;;;2.13;;
59702;SDS011;45570;48.782;8.332;2023-03-14T21:40:53;4.10;;;1.92;;
59702;SDS011;45570;48.782;8.332;2023-03-14T21:43:22;3.90;;;1.95;;
59702;SDS011;45570;48.782;8.332;2023-03-14T21:45:53;5.07;;;1.90;;
59702;SDS011;45570;48.782;8.332;2023-03-14T21:48:21;3.15;;;2.08;;
59702;SDS011;45570;48.782;8.332;2023-03-14T21:50:50;5.00;;;2.17;;
59702;SDS011;45570;48.782;8.332;2023-03-14T21:53:21;2.88;;;2.10;;
59702;SDS011;45570;48.782;8.332;2023-03-14T21:55:55;8.43;;;1.88;;
59702;SDS011;45570;48.782;8.332;2023-03-14T21:58:26;3.80;;;1.85;;
59702;SDS011;45570;48.782;8.332;2023-03-14T22:00:59;3.58;;;1.77;;
59702;SDS011;45570;48.782;8.332;2023-03-14T22:03:31;5.30;;;2.42;;
59702;SDS011;45570;48.782;8.332;2023-03-14T22:06:01;4.30;;;2.40;;
59702;SDS011;45570;48.782;8.332;2023-03-14T22:08:30;2.10;;;1.45;;
59702;SDS011;45570;48.782;8.332;2023-03-14T22:10:59;3.40;;;1.95;;
59702;SDS011;45570;48.782;8.332;2023-03-14T22:13:29;3.13;;;1.60;;
59702;SDS011;45570;48.782;8.332;2023-03-14T22:15:57;3.15;;;1.60;;
59702;SDS011;45570;48.782;8.332;2023-03-14T22:18:26;1.70;;;1.50;;
59702;SDS011;45570;48.782;8.332;2023-03-14T22:20:55;2.63;;;1.55;;
59702;SDS011;45570;48.782;8.332;2023-03-14T22:23:24;3.80;;;1.50;;
59702;SDS011;45570;48.782;8.332;2023-03-14T22:25:52;2.92;;;1.67;;
59702;SDS011;45570;48.782;8.332;2023-03-14T22:28:21;6.50;;;2.63;;
59702;SDS011;45570;48.782;8.332;2023-03-14T22:30:51;4.90;;;1.83;;
59702;SDS011;45570;48.782;8.332;2023-03-14T22:33:20;7.15;;;2.10;;
59702;SDS011;45570;48.782;8.332;2023-03-14T22:35:49;5.07;;;2.10;;
59702;SDS011;45570;48.782;8.332;2023-03-14T22:38:19;7.53;;;2.10;;
